Terminal Aerodrome Forecast
Issued by NWS

Home | Current Version | Previous Version | Text Only | Print | Product List | Glossary On
Versions: 1 2 3 4 5 6 7 8 9 10 11 12 13 14 15 16 17 18 19 20 21 22 23 24 25
000
FTUS41 KALY 061735
TAFPSF
TAF
KPSF 061735Z 0618/0718 32003KT P6SM SCT015 BKN200
     FM062200 12003KT P6SM OVC100
     FM070500 10003KT 4SM -SN BKN015 OVC050
     FM070700 12004KT 2SM -SN OVC008
     FM071600 15005KT P6SM SCT008 OVC015=

USA.gov is the U.S. government's official web portal to all federal, state and local government web resources and services.